createdAt,value
2018-03-26T00:03:10.726Z,6.97
2018-03-26T00:05:37.769Z,7.97
2018-03-26T00:08:05.052Z,7.00
2018-03-26T00:10:33.271Z,6.10
2018-03-26T00:13:00.052Z,7.17
2018-03-26T00:15:27.091Z,6.37
2018-03-26T00:17:54.157Z,6.80
2018-03-26T00:20:21.192Z,6.63
2018-03-26T00:22:48.226Z,7.40
2018-03-26T00:25:15.293Z,5.27
2018-03-26T00:27:43.196Z,6.37
2018-03-26T00:30:10.262Z,6.10
2018-03-26T00:32:37.359Z,6.73
2018-03-26T00:35:05.216Z,6.87
2018-03-26T00:37:32.277Z,6.77
2018-03-26T00:39:59.336Z,7.03
2018-03-26T00:42:26.379Z,6.33
2018-03-26T00:44:53.416Z,7.03
2018-03-26T00:47:20.504Z,8.90
2018-03-26T00:49:47.564Z,7.13
2018-03-26T00:52:14.606Z,6.70
2018-03-26T00:54:42.363Z,7.00
2018-03-26T00:57:09.405Z,7.50
2018-03-26T00:59:36.530Z,6.10
2018-03-26T01:02:03.617Z,5.90
2018-03-26T01:04:30.654Z,6.33
2018-03-26T01:06:57.696Z,6.70
2018-03-26T01:09:24.773Z,7.13
2018-03-26T01:11:51.809Z,9.80
2018-03-26T01:14:18.846Z,6.57
2018-03-26T01:16:46.015Z,6.13
2018-03-26T01:21:51.601Z,6.10
2018-03-26T01:24:18.910Z,7.80
2018-03-26T01:26:45.960Z,5.53
2018-03-26T01:29:13.029Z,6.60
2018-03-26T01:31:40.058Z,5.77
2018-03-26T01:34:07.122Z,8.50
2018-03-26T01:36:34.658Z,5.63
2018-03-26T01:39:01.690Z,7.03
2018-03-26T01:41:29.220Z,8.77
2018-03-26T01:43:56.284Z,7.00
2018-03-26T01:46:23.313Z,6.10
2018-03-26T01:48:50.336Z,6.50
2018-03-26T01:51:17.436Z,7.73
2018-03-26T01:53:44.576Z,10.37
2018-03-26T01:56:11.620Z,6.70
2018-03-26T01:58:38.686Z,5.30
2018-03-26T02:01:05.727Z,5.87
2018-03-26T02:03:32.845Z,8.03
2018-03-26T02:05:59.908Z,6.80
2018-03-26T02:08:26.943Z,7.40
2018-03-26T02:10:54.735Z,8.27
2018-03-26T02:13:21.814Z,6.57
2018-03-26T02:15:48.837Z,5.90
2018-03-26T02:18:15.849Z,6.83
2018-03-26T02:20:43.174Z,7.23
2018-03-26T02:23:10.208Z,7.87
2018-03-26T02:25:37.256Z,6.87
2018-03-26T02:28:04.316Z,6.60
2018-03-26T02:30:31.350Z,8.10
2018-03-26T02:32:58.400Z,13.10
2018-03-26T02:35:25.503Z,9.03
2018-03-26T02:37:52.540Z,5.87
2018-03-26T02:42:58.095Z,9.60
2018-03-26T02:48:05.263Z,9.43
2018-03-26T02:50:33.200Z,8.33
2018-03-26T02:53:03.307Z,5.90
2018-03-26T02:55:30.405Z,9.47
2018-03-26T02:58:00.289Z,7.97
2018-03-26T03:00:27.319Z,7.20
2018-03-26T03:02:54.381Z,12.80
2018-03-26T03:05:21.424Z,9.50
2018-03-26T03:07:48.465Z,12.23
2018-03-26T03:10:15.541Z,8.13
2018-03-26T03:12:42.578Z,8.07
2018-03-26T03:15:09.617Z,6.63
2018-03-26T03:17:36.698Z,7.97
2018-03-26T03:20:03.746Z,7.90
2018-03-26T03:22:30.814Z,7.40
2018-03-26T03:24:57.845Z,6.53
2018-03-26T03:27:24.885Z,6.87
2018-03-26T03:29:51.927Z,7.67
2018-03-26T03:32:19.970Z,6.83
2018-03-26T03:34:47.008Z,6.83
2018-03-26T03:37:14.048Z,7.27
2018-03-26T03:39:41.112Z,7.57
2018-03-26T03:42:11.242Z,8.10
2018-03-26T03:44:39.094Z,6.37
2018-03-26T03:47:06.763Z,6.97
2018-03-26T03:49:33.802Z,6.30
2018-03-26T03:52:00.876Z,5.90
2018-03-26T03:54:27.910Z,8.53
2018-03-26T03:56:55.918Z,8.03
2018-03-26T03:59:22.973Z,7.20
2018-03-26T04:04:28.540Z,8.27
2018-03-26T04:06:55.643Z,5.30
2018-03-26T04:09:22.674Z,8.43
2018-03-26T04:11:49.690Z,8.03
2018-03-26T04:14:16.786Z,8.07
2018-03-26T04:16:44.589Z,9.83
2018-03-26T04:19:11.634Z,7.67
2018-03-26T04:21:38.685Z,9.60
2018-03-26T04:24:05.728Z,8.67
2018-03-26T04:26:32.780Z,7.53
2018-03-26T04:28:59.855Z,7.53
2018-03-26T04:31:26.892Z,10.17
2018-03-26T04:33:53.925Z,10.47
2018-03-26T04:36:20.998Z,5.87
2018-03-26T04:38:49.620Z,7.77
2018-03-26T04:41:16.668Z,8.87
2018-03-26T04:43:43.725Z,7.63
2018-03-26T04:46:10.759Z,12.13
2018-03-26T04:48:37.796Z,7.33
2018-03-26T04:51:06.732Z,8.03
2018-03-26T04:53:33.742Z,7.53
2018-03-26T04:56:00.796Z,10.37
2018-03-26T04:58:27.879Z,6.77
2018-03-26T05:00:54.924Z,6.30
2018-03-26T05:03:22.784Z,8.67
2018-03-26T05:05:49.881Z,9.33
2018-03-26T05:08:16.929Z,9.47
2018-03-26T05:10:44.027Z,7.03
2018-03-26T05:13:11.114Z,13.30
2018-03-26T05:15:38.144Z,17.03
2018-03-26T05:18:05.181Z,9.70
2018-03-26T05:20:32.698Z,7.50
2018-03-26T05:22:59.727Z,8.87
2018-03-26T05:25:26.759Z,14.40
2018-03-26T05:27:53.836Z,14.67
2018-03-26T05:33:01.403Z,10.40
2018-03-26T05:35:28.434Z,10.87
2018-03-26T05:37:55.482Z,11.10
2018-03-26T05:40:22.545Z,10.37
2018-03-26T05:42:50.549Z,12.20
2018-03-26T05:45:17.582Z,10.57
2018-03-26T05:47:44.644Z,10.60
2018-03-26T05:50:11.673Z,11.00
2018-03-26T05:52:39.663Z,12.63
2018-03-26T05:55:06.768Z,12.07
2018-03-26T05:57:34.270Z,8.70
2018-03-26T06:00:01.345Z,10.00
2018-03-26T06:02:28.407Z,12.10
2018-03-26T06:04:55.438Z,10.97
2018-03-26T06:07:23.347Z,11.20
2018-03-26T06:09:50.443Z,12.50
2018-03-26T06:12:17.467Z,9.33
2018-03-26T06:14:51.100Z,10.97
2018-03-26T06:17:18.371Z,9.83
2018-03-26T06:19:45.410Z,14.13
2018-03-26T06:22:12.495Z,11.40
2018-03-26T06:24:40.376Z,12.43
2018-03-26T06:27:07.410Z,11.10
2018-03-26T06:29:34.504Z,9.70
2018-03-26T06:32:01.566Z,10.70
2018-03-26T06:34:30.066Z,13.17
2018-03-26T06:36:57.157Z,14.07
2018-03-26T06:39:24.214Z,15.30
2018-03-26T06:41:52.161Z,13.53
2018-03-26T06:44:19.252Z,8.63
2018-03-26T06:46:46.289Z,12.10
2018-03-26T06:49:13.346Z,11.23
2018-03-26T06:51:43.371Z,12.17
2018-03-26T06:54:10.449Z,14.77
2018-03-26T06:59:20.523Z,12.57
2018-03-26T07:01:47.848Z,11.50
2018-03-26T07:04:14.999Z,16.00
2018-03-26T07:06:42.239Z,12.17
2018-03-26T07:09:09.718Z,18.60
2018-03-26T07:14:15.740Z,12.80
2018-03-26T07:16:43.624Z,14.40
2018-03-26T07:19:10.663Z,15.37
2018-03-26T07:21:37.740Z,11.37
2018-03-26T07:24:04.771Z,13.80
2018-03-26T07:26:31.899Z,12.10
2018-03-26T07:28:59.016Z,9.53
2018-03-26T07:31:26.542Z,13.40
2018-03-26T07:33:53.578Z,9.63
2018-03-26T07:36:20.652Z,11.23
2018-03-26T07:38:48.560Z,13.83
2018-03-26T07:41:15.617Z,9.50
2018-03-26T07:43:42.704Z,13.77
2018-03-26T07:46:09.749Z,11.10
2018-03-26T07:48:36.800Z,16.00
2018-03-26T07:51:05.719Z,12.63
2018-03-26T07:56:11.942Z,14.35
2018-03-26T07:58:38.992Z,13.87
2018-03-26T08:01:08.634Z,10.03
2018-03-26T08:03:35.740Z,15.87
2018-03-26T08:06:07.797Z,16.97
2018-03-26T08:08:34.855Z,10.87
2018-03-26T08:11:02.775Z,15.13
2018-03-26T08:13:31.060Z,13.17
2018-03-26T08:15:58.186Z,13.63
2018-03-26T08:18:25.323Z,13.73
2018-03-26T08:20:53.181Z,12.47
2018-03-26T08:23:20.230Z,12.57
2018-03-26T08:25:47.327Z,10.63
2018-03-26T08:28:14.361Z,15.47
2018-03-26T08:30:41.417Z,9.00
2018-03-26T08:38:35.770Z,14.33
2018-03-26T08:41:02.919Z,14.63
2018-03-26T08:43:30.014Z,14.67
2018-03-26T08:45:57.082Z,14.77
2018-03-26T08:48:24.221Z,11.13
2018-03-26T08:50:51.230Z,15.47
2018-03-26T08:53:18.317Z,11.37
2018-03-26T08:58:24.498Z,13.55
2018-03-26T09:00:51.624Z,13.87
2018-03-26T09:03:24.938Z,14.10
2018-03-26T09:05:52.014Z,12.23
2018-03-26T09:08:19.066Z,11.90
2018-03-26T09:10:46.265Z,8.30
2018-03-26T09:13:13.318Z,11.40
2018-03-26T09:15:40.365Z,10.57
2018-03-26T09:18:08.586Z,14.57
2018-03-26T09:20:35.654Z,11.80
2018-03-26T09:23:05.931Z,10.20
2018-03-26T09:25:33.180Z,7.80
2018-03-26T09:28:00.233Z,6.70
2018-03-26T09:30:28.379Z,7.03
2018-03-26T09:32:56.319Z,9.37
2018-03-26T09:35:23.393Z,9.37
2018-03-26T09:37:50.384Z,7.80
2018-03-26T09:40:17.601Z,9.53
2018-03-26T09:42:44.576Z,14.77
2018-03-26T09:45:11.620Z,10.73
2018-03-26T09:47:38.699Z,20.03
2018-03-26T09:50:05.748Z,17.17
2018-03-26T09:52:32.770Z,15.60
2018-03-26T09:54:59.841Z,17.23
2018-03-26T09:57:26.864Z,16.10
2018-03-26T09:59:53.889Z,24.73
2018-03-26T10:02:20.962Z,13.23
2018-03-26T10:04:47.994Z,20.73
2018-03-26T10:07:15.065Z,10.27
2018-03-26T10:09:42.116Z,15.07
2018-03-26T10:12:09.141Z,10.63
2018-03-26T10:14:36.168Z,10.57
2018-03-26T10:17:03.249Z,13.50
2018-03-26T10:19:30.285Z,10.17
2018-03-26T10:24:35.846Z,13.50
2018-03-26T10:27:02.859Z,10.13
2018-03-26T10:29:29.985Z,10.63
2018-03-26T10:31:57.073Z,10.43
2018-03-26T10:34:25.101Z,11.90
2018-03-26T10:36:52.141Z,14.30
2018-03-26T10:39:19.249Z,10.30
2018-03-26T10:41:47.637Z,12.97
2018-03-26T10:44:13.350Z,12.63
2018-03-26T10:46:40.419Z,13.03
2018-03-26T10:49:07.489Z,15.47
2018-03-26T10:51:35.051Z,11.20
2018-03-26T10:54:02.135Z,10.27
2018-03-26T10:56:29.196Z,10.73
2018-03-26T10:58:59.440Z,9.60
2018-03-26T11:01:26.521Z,12.50
2018-03-26T11:03:53.609Z,9.43
2018-03-26T11:06:20.666Z,25.70
2018-03-26T11:08:48.020Z,29.40
2018-03-26T11:11:15.926Z,16.83
2018-03-26T11:13:46.803Z,11.23
2018-03-26T11:18:49.943Z,17.42
2018-03-26T11:21:19.100Z,19.73
2018-03-26T11:37:38.196Z,14.67
2018-03-26T11:40:06.798Z,26.97
2018-03-26T11:42:34.517Z,15.03
2018-03-26T11:45:02.225Z,12.73
2018-03-26T11:47:29.977Z,18.83
2018-03-26T11:49:58.815Z,23.63
2018-03-26T11:52:26.391Z,17.97
2018-03-26T11:54:55.015Z,17.97
2018-03-26T11:57:23.736Z,19.30
2018-03-26T11:59:51.394Z,16.17
2018-03-26T12:02:19.091Z,15.70
2018-03-26T12:04:46.770Z,17.90
2018-03-26T12:07:15.433Z,14.10
2018-03-26T12:09:43.166Z,18.90
2018-03-26T12:12:11.613Z,21.03
2018-03-26T12:14:42.116Z,18.97
2018-03-26T12:17:11.414Z,18.63
2018-03-26T12:19:50.525Z,22.17
2018-03-26T12:22:18.013Z,16.33
2018-03-26T12:27:32.205Z,19.62
2018-03-26T12:32:44.401Z,21.52
2018-03-26T12:35:23.649Z,18.13
2018-03-26T12:37:51.205Z,21.47
2018-03-26T12:40:30.429Z,20.50
2018-03-26T12:42:58.829Z,21.97
2018-03-26T12:45:32.238Z,21.60
2018-03-26T12:48:04.900Z,23.63
2018-03-26T12:50:44.784Z,23.50
2018-03-26T12:53:12.221Z,20.57
2018-03-26T12:55:40.488Z,23.53
2018-03-26T12:58:20.283Z,23.30
2018-03-26T13:00:59.966Z,24.83
2018-03-26T13:03:29.007Z,25.23
2018-03-26T13:05:57.905Z,19.27
2018-03-26T13:08:26.797Z,21.70
2018-03-26T13:10:54.710Z,26.00
2018-03-26T13:13:22.764Z,20.60
2018-03-26T13:15:50.465Z,23.63
2018-03-26T13:18:18.307Z,20.30
2018-03-26T13:20:46.444Z,22.47
2018-03-26T13:23:13.992Z,26.40
2018-03-26T13:25:42.527Z,29.77
2018-03-26T13:28:12.116Z,24.60
2018-03-26T13:30:39.905Z,25.53
2018-03-26T13:33:08.569Z,22.63
2018-03-26T13:35:36.312Z,24.27
2018-03-26T13:38:04.747Z,25.60
2018-03-26T13:40:32.806Z,23.93
2018-03-26T13:43:00.564Z,27.97
2018-03-26T13:45:28.938Z,25.23
2018-03-26T13:47:56.715Z,22.27
2018-03-26T13:50:24.350Z,27.53
2018-03-26T13:52:53.182Z,27.20
2018-03-26T13:57:59.666Z,26.65
2018-03-26T14:00:27.144Z,24.73
2018-03-26T14:02:54.630Z,25.70
2018-03-26T14:05:22.216Z,22.93
2018-03-26T14:07:49.835Z,38.73
2018-03-26T14:10:28.914Z,24.03
2018-03-26T14:13:08.062Z,23.83
2018-03-26T14:15:47.114Z,19.53
2018-03-26T14:18:14.501Z,20.90
2018-03-26T14:20:42.088Z,21.27
2018-03-26T14:23:09.559Z,23.80
2018-03-26T14:25:38.167Z,26.27
2018-03-26T14:28:05.692Z,29.93
2018-03-26T14:30:34.459Z,29.43
2018-03-26T14:33:02.067Z,25.80
2018-03-26T14:38:11.118Z,37.95
2018-03-26T14:40:38.449Z,27.83
2018-03-26T14:43:08.906Z,28.23
2018-03-26T14:45:36.529Z,30.33
2018-03-26T14:48:05.062Z,31.50
2018-03-26T14:50:32.554Z,27.00
2018-03-26T14:53:00.151Z,26.80
2018-03-26T14:55:28.732Z,33.90
2018-03-26T14:57:56.738Z,28.67
2018-03-26T15:00:23.920Z,29.33
2018-03-26T15:02:52.598Z,29.70
2018-03-26T15:05:20.332Z,27.17
2018-03-26T15:07:47.742Z,33.50
2018-03-26T15:10:16.122Z,30.03
2018-03-26T15:12:44.790Z,31.13
2018-03-26T15:15:12.254Z,30.47
2018-03-26T15:17:41.033Z,26.30
2018-03-26T15:20:09.463Z,30.23
2018-03-26T15:22:38.127Z,29.33
2018-03-26T15:25:06.443Z,27.57
2018-03-26T15:27:33.949Z,26.63
2018-03-26T15:30:07.126Z,28.23
2018-03-26T15:32:35.635Z,26.30
2018-03-26T15:35:03.918Z,30.23
2018-03-26T15:37:32.204Z,25.60
2018-03-26T15:39:59.824Z,26.43
2018-03-26T15:42:28.329Z,25.83
2018-03-26T15:44:56.677Z,23.67
2018-03-26T15:47:24.335Z,23.00
2018-03-26T15:49:52.727Z,25.97
2018-03-26T15:52:20.393Z,26.30
2018-03-26T15:54:49.351Z,26.20
2018-03-26T15:59:54.732Z,26.75
2018-03-26T16:02:22.260Z,29.90
2018-03-26T16:04:49.970Z,25.27
2018-03-26T16:07:17.815Z,25.53
2018-03-26T16:09:45.593Z,28.63
2018-03-26T16:12:12.925Z,28.27
2018-03-26T16:14:46.512Z,29.40
2018-03-26T16:17:13.976Z,26.43
2018-03-26T16:19:43.923Z,25.90
2018-03-26T16:22:13.137Z,28.57
2018-03-26T16:24:44.264Z,25.73
2018-03-26T16:27:12.506Z,25.17
2018-03-26T16:29:40.278Z,27.23
2018-03-26T16:32:07.409Z,24.60
2018-03-26T16:37:10.972Z,29.40
2018-03-26T16:39:39.159Z,28.73
2018-03-26T16:44:56.693Z,28.77
2018-03-26T16:47:24.382Z,26.77
2018-03-26T16:49:52.692Z,23.40
2018-03-26T16:52:20.420Z,26.67
2018-03-26T16:54:48.965Z,26.87
2018-03-26T16:57:16.704Z,30.57
2018-03-26T16:59:45.079Z,27.07
2018-03-26T17:02:12.589Z,21.50
2018-03-26T17:04:46.191Z,22.30
2018-03-26T17:07:18.702Z,19.80
2018-03-26T17:09:46.885Z,19.60
2018-03-26T17:12:16.415Z,21.27
2018-03-26T17:14:48.584Z,20.20
2018-03-26T17:17:21.254Z,16.17
2018-03-26T17:19:49.086Z,18.53
2018-03-26T17:22:22.362Z,19.80
2018-03-26T17:24:50.747Z,19.50
2018-03-26T17:27:18.444Z,21.47
2018-03-26T17:29:48.506Z,22.17
2018-03-26T17:37:32.882Z,24.33
2018-03-26T17:40:01.685Z,24.17
2018-03-26T17:42:30.640Z,19.10
2018-03-26T17:44:59.059Z,18.67
2018-03-26T17:47:27.028Z,19.27
2018-03-26T17:49:54.036Z,21.47
2018-03-26T17:52:21.156Z,20.07
2018-03-26T17:54:48.407Z,20.17
2018-03-26T17:57:21.741Z,18.53
2018-03-26T17:59:48.888Z,19.27
2018-03-26T18:02:16.294Z,20.13
2018-03-26T18:04:43.281Z,18.00
2018-03-26T18:07:11.157Z,18.93
2018-03-26T18:09:37.870Z,16.57
2018-03-26T18:12:04.911Z,15.80
2018-03-26T18:14:32.042Z,16.30
2018-03-26T18:16:59.100Z,16.73
2018-03-26T18:19:26.496Z,16.57
2018-03-26T18:21:53.923Z,15.67
2018-03-26T18:24:21.005Z,15.10
2018-03-26T18:26:48.135Z,19.87
2018-03-26T18:29:15.226Z,26.43
2018-03-26T18:31:42.295Z,24.50
2018-03-26T18:34:09.407Z,29.17
2018-03-26T18:36:36.460Z,27.13
2018-03-26T18:41:43.001Z,27.75
2018-03-26T18:44:10.967Z,26.23
2018-03-26T18:46:37.993Z,26.07
2018-03-26T18:49:05.102Z,30.77
2018-03-26T18:51:33.102Z,28.10
2018-03-26T18:54:00.282Z,26.30
2018-03-26T18:56:28.396Z,27.73
2018-03-26T18:58:55.643Z,28.60
2018-03-26T19:03:53.377Z,35.20
2018-03-26T19:06:20.530Z,30.60
2018-03-26T19:08:47.580Z,32.13
2018-03-26T19:11:14.682Z,29.53
2018-03-26T19:13:41.727Z,30.03
2018-03-26T19:16:08.852Z,31.83
2018-03-26T19:18:36.015Z,29.73
2018-03-26T19:21:04.562Z,29.70
2018-03-26T19:23:31.652Z,38.33
2018-03-26T19:25:58.716Z,35.50
2018-03-26T19:28:25.774Z,34.07
2018-03-26T19:30:52.841Z,32.77
2018-03-26T19:33:19.971Z,32.73
2018-03-26T19:35:47.055Z,34.27
2018-03-26T19:38:14.124Z,31.47
2018-03-26T19:40:41.258Z,30.53
2018-03-26T19:43:08.332Z,35.03
2018-03-26T19:45:35.358Z,36.67
2018-03-26T19:48:02.442Z,33.97
2018-03-26T19:50:29.488Z,36.67
2018-03-26T19:52:56.549Z,37.30
2018-03-26T19:55:23.608Z,36.30
2018-03-26T19:57:50.657Z,33.27
2018-03-26T20:00:17.739Z,38.70
2018-03-26T20:02:44.886Z,36.53
2018-03-26T20:07:51.415Z,37.05
2018-03-26T20:10:18.436Z,35.60
2018-03-26T20:12:46.536Z,38.37
2018-03-26T20:15:13.625Z,38.00
2018-03-26T20:17:44.592Z,34.73
2018-03-26T20:20:11.650Z,33.27
2018-03-26T20:22:44.364Z,36.23
2018-03-26T20:33:56.690Z,36.80
2018-03-26T20:36:23.734Z,33.50
2018-03-26T20:38:50.967Z,35.40
2018-03-26T20:41:18.019Z,32.57
2018-03-26T20:43:51.539Z,35.33
2018-03-26T20:46:25.573Z,38.20
2018-03-26T20:48:56.744Z,40.60
2018-03-26T20:51:24.205Z,35.43
2018-03-26T20:53:52.519Z,35.90
2018-03-26T20:56:19.806Z,33.90
2018-03-26T20:58:46.876Z,35.77
2018-03-26T21:01:13.994Z,33.87
2018-03-26T21:03:41.847Z,31.63
2018-03-26T21:06:08.991Z,33.50
2018-03-26T21:08:36.061Z,29.60
2018-03-26T21:11:03.082Z,32.43
2018-03-26T21:13:30.173Z,33.97
2018-03-26T21:15:57.203Z,32.43
2018-03-26T21:18:24.249Z,33.03
2018-03-26T21:26:18.751Z,38.72
2018-03-26T21:28:51.127Z,34.77
2018-03-26T21:31:18.192Z,34.50
2018-03-26T21:39:04.448Z,38.47
2018-03-26T21:41:31.938Z,38.10
2018-03-26T21:43:58.960Z,35.60
2018-03-26T21:46:25.987Z,37.73
2018-03-26T21:48:53.710Z,35.63
2018-03-26T21:51:21.669Z,36.40
2018-03-26T21:53:48.383Z,35.87
2018-03-26T21:56:15.975Z,38.67
2018-03-26T21:58:43.479Z,36.57
2018-03-26T22:01:12.875Z,36.67
2018-03-26T22:03:38.427Z,37.10
2018-03-26T22:06:05.538Z,38.43
2018-03-26T22:08:32.562Z,39.33
2018-03-26T22:11:00.460Z,41.57
2018-03-26T22:13:28.350Z,38.03
2018-03-26T22:15:55.910Z,37.70
2018-03-26T22:21:04.752Z,40.20
2018-03-26T22:23:31.952Z,37.63
2018-03-26T22:25:58.991Z,37.27
2018-03-26T22:28:26.031Z,39.80
2018-03-26T22:30:53.122Z,42.17
2018-03-26T22:33:20.144Z,39.43
2018-03-26T22:35:47.649Z,35.97
2018-03-26T22:38:14.711Z,38.33
2018-03-26T22:40:41.735Z,38.33
2018-03-26T22:43:08.795Z,41.47
2018-03-26T22:45:36.139Z,39.00
2018-03-26T22:48:04.029Z,40.00
2018-03-26T22:50:31.065Z,35.37
2018-03-26T22:53:00.166Z,39.20
2018-03-26T22:55:27.364Z,42.83
2018-03-26T22:57:55.678Z,42.67
2018-03-26T23:00:22.778Z,42.77
2018-03-26T23:02:49.806Z,44.60
2018-03-26T23:05:16.851Z,42.87
2018-03-26T23:07:44.370Z,40.87
2018-03-26T23:10:11.839Z,43.33
2018-03-26T23:12:40.850Z,43.83
2018-03-26T23:15:07.926Z,44.33
2018-03-26T23:17:34.962Z,47.40
2018-03-26T23:22:47.672Z,49.03
2018-03-26T23:25:14.704Z,48.27
2018-03-26T23:27:41.750Z,43.93
2018-03-26T23:30:08.838Z,51.03
2018-03-26T23:32:35.895Z,43.63
2018-03-26T23:35:07.198Z,45.40
2018-03-26T23:37:34.378Z,47.50
2018-03-26T23:40:04.341Z,46.50
2018-03-26T23:42:32.298Z,51.33
2018-03-26T23:44:59.367Z,44.30
2018-03-26T23:50:05.506Z,49.03
2018-03-26T23:52:33.496Z,47.17
2018-03-26T23:55:00.549Z,49.77
2018-03-26T23:57:28.592Z,48.90
2018-03-26T23:59:55.619Z,45.30
